createdAt,value
2022-10-13T00:01:37.360Z,31.90
2022-10-13T00:04:40.422Z,54.03
2022-10-13T00:07:43.418Z,30.58
2022-10-13T00:10:48.017Z,22.95
2022-10-13T00:13:53.184Z,25.65
2022-10-13T00:16:57.032Z,21.85
2022-10-13T00:20:00.235Z,16.27
2022-10-13T00:23:03.225Z,24.77
2022-10-13T00:26:09.137Z,16.42
2022-10-13T00:29:12.163Z,39.15
2022-10-13T00:32:15.272Z,53.67
2022-10-13T00:35:18.447Z,51.38
2022-10-13T00:38:22.816Z,43.20
2022-10-13T00:41:26.030Z,44.33
2022-10-13T00:45:01.575Z,35.75
2022-10-13T00:48:04.773Z,41.00
2022-10-13T00:51:08.839Z,40.78
2022-10-13T00:54:18.009Z,43.37
2022-10-13T00:57:21.592Z,37.13
2022-10-13T01:00:25.098Z,48.20
2022-10-13T01:03:28.623Z,41.63
2022-10-13T01:06:31.877Z,39.70
2022-10-13T01:09:42.888Z,43.92
2022-10-13T01:12:57.646Z,51.05
2022-10-13T01:16:12.698Z,83.88
2022-10-13T01:19:45.881Z,30.40
2022-10-13T01:23:01.678Z,35.88
2022-10-13T01:26:38.713Z,24.02
2022-10-13T01:30:03.365Z,16.70
2022-10-13T01:33:34.360Z,47.03
2022-10-13T01:36:47.709Z,28.85
2022-10-13T01:39:58.528Z,42.13
2022-10-13T01:43:25.883Z,43.90
2022-10-13T01:46:33.149Z,47.42
2022-10-13T01:49:37.091Z,45.42
2022-10-13T01:52:40.998Z,45.03
2022-10-13T01:56:10.272Z,46.17
2022-10-13T01:59:17.647Z,42.05
2022-10-13T02:02:32.994Z,55.90
2022-10-13T02:05:50.749Z,51.90
2022-10-13T02:08:57.650Z,53.28
2022-10-13T02:12:10.784Z,51.35
2022-10-13T02:15:20.342Z,38.60
2022-10-13T02:18:29.131Z,52.42
2022-10-13T02:21:32.989Z,56.50
2022-10-13T02:24:38.293Z,52.75
2022-10-13T02:27:42.371Z,49.97
2022-10-13T02:30:46.734Z,52.37
2022-10-13T02:33:49.713Z,42.90
2022-10-13T02:36:53.095Z,49.28
2022-10-13T02:39:56.013Z,43.20
2022-10-13T02:42:59.055Z,39.45
2022-10-13T02:46:02.037Z,21.52
2022-10-13T02:49:05.147Z,13.00
2022-10-13T02:52:08.535Z,17.52
2022-10-13T02:55:13.763Z,12.10
2022-10-13T02:58:17.638Z,21.95
2022-10-13T03:01:20.697Z,17.75
2022-10-13T03:04:23.700Z,17.58
2022-10-13T03:07:28.850Z,16.30
2022-10-13T03:10:32.656Z,15.23
2022-10-13T03:13:37.251Z,12.38
2022-10-13T03:16:42.327Z,14.63
2022-10-13T03:19:46.329Z,21.80
2022-10-13T03:22:53.414Z,16.83
2022-10-13T03:25:56.895Z,16.90
2022-10-13T03:28:59.970Z,20.65
2022-10-13T03:32:03.177Z,18.10
2022-10-13T03:35:07.015Z,12.00
2022-10-13T03:38:10.051Z,10.18
2022-10-13T03:41:16.051Z,7.10
2022-10-13T03:44:21.007Z,8.38
2022-10-13T03:47:24.239Z,7.32
2022-10-13T03:50:27.446Z,7.10
2022-10-13T03:53:30.736Z,6.50
2022-10-13T03:56:33.676Z,8.55
2022-10-13T03:59:37.066Z,5.90
2022-10-13T04:02:40.264Z,7.03
2022-10-13T04:05:43.939Z,21.50
2022-10-13T04:08:47.148Z,6.18
2022-10-13T04:11:53.409Z,6.90
2022-10-13T04:14:56.434Z,9.82
2022-10-13T04:17:59.487Z,5.78
2022-10-13T04:21:02.542Z,9.88
2022-10-13T04:24:06.319Z,7.20
2022-10-13T04:27:09.434Z,5.15
2022-10-13T04:30:13.701Z,5.97
2022-10-13T04:33:16.767Z,4.25
2022-10-13T04:36:20.265Z,4.13
2022-10-13T04:39:25.917Z,4.68
2022-10-13T04:42:28.968Z,9.00
2022-10-13T04:45:31.935Z,6.97
2022-10-13T04:48:34.957Z,5.18
2022-10-13T04:51:38.769Z,5.78
2022-10-13T04:54:42.934Z,4.00
2022-10-13T04:57:46.077Z,4.85
2022-10-13T05:00:49.150Z,6.00
2022-10-13T05:03:57.095Z,7.72
2022-10-13T05:07:17.166Z,5.78
2022-10-13T05:10:21.578Z,5.65
2022-10-13T05:13:25.829Z,6.22
2022-10-13T05:16:33.168Z,6.90
2022-10-13T05:19:36.108Z,10.57
2022-10-13T05:22:39.318Z,4.57
2022-10-13T05:25:42.360Z,6.70
2022-10-13T05:28:48.887Z,12.00
2022-10-13T05:31:52.028Z,8.52
2022-10-13T05:34:58.472Z,5.47
2022-10-13T05:38:01.443Z,8.07
2022-10-13T05:41:06.705Z,4.78
2022-10-13T05:44:10.497Z,6.35
2022-10-13T05:47:19.384Z,7.95
2022-10-13T05:50:22.453Z,11.10
2022-10-13T05:53:32.631Z,12.38
2022-10-13T05:56:47.007Z,4.60
2022-10-13T06:00:10.803Z,4.13
2022-10-13T06:03:21.766Z,3.53
2022-10-13T06:06:31.154Z,7.38
2022-10-13T06:09:38.398Z,6.43
2022-10-13T06:12:41.367Z,19.75
2022-10-13T06:15:44.448Z,5.90
2022-10-13T06:18:47.747Z,3.17
2022-10-13T06:21:50.800Z,1.90
2022-10-13T06:24:53.873Z,3.90
2022-10-13T06:28:01.153Z,3.33
2022-10-13T06:31:07.234Z,2.10
2022-10-13T06:34:10.148Z,3.28
2022-10-13T06:37:13.184Z,1.75
2022-10-13T06:40:17.263Z,3.60
2022-10-13T06:43:20.212Z,6.03
2022-10-13T06:46:26.360Z,7.10
2022-10-13T06:49:29.319Z,6.35
2022-10-13T06:52:32.373Z,8.98
2022-10-13T06:55:35.646Z,2.42
2022-10-13T06:58:38.993Z,7.35
2022-10-13T07:01:42.097Z,3.83
2022-10-13T07:04:48.467Z,8.18
2022-10-13T07:07:54.638Z,10.52
2022-10-13T07:10:58.398Z,6.07
2022-10-13T07:17:04.732Z,4.28
2022-10-13T07:20:08.722Z,5.53
2022-10-13T07:23:11.815Z,8.23
2022-10-13T07:26:16.742Z,2.80
2022-10-13T07:32:23.080Z,3.85
2022-10-13T07:35:30.493Z,2.90
2022-10-13T07:38:35.342Z,1.60
2022-10-13T07:41:38.787Z,2.38
2022-10-13T07:44:41.858Z,3.03
2022-10-13T07:47:44.876Z,12.73
2022-10-13T07:50:47.990Z,4.13
2022-10-13T07:53:50.981Z,9.32
2022-10-13T07:56:55.897Z,7.65
2022-10-13T07:59:59.226Z,6.97
2022-10-13T08:03:02.289Z,7.47
2022-10-13T08:06:06.570Z,15.05
2022-10-13T08:09:10.408Z,12.77
2022-10-13T08:12:13.642Z,16.17
2022-10-13T08:15:19.669Z,14.50
2022-10-13T08:18:22.640Z,13.52
2022-10-13T08:21:53.311Z,10.20
2022-10-13T08:24:51.616Z,12.90
2022-10-13T08:27:58.199Z,9.27
2022-10-13T08:31:03.438Z,11.93
2022-10-13T08:34:06.663Z,12.50
2022-10-13T08:37:15.624Z,24.25
2022-10-13T08:40:23.519Z,16.92
2022-10-13T08:43:27.361Z,16.25
2022-10-13T08:46:39.659Z,11.18
2022-10-13T08:49:44.398Z,11.52
2022-10-13T08:52:56.022Z,4.32
2022-10-13T08:56:00.797Z,10.70
2022-10-13T08:59:05.779Z,12.77
2022-10-13T09:02:30.681Z,10.50
2022-10-13T09:05:51.574Z,16.27
2022-10-13T09:08:58.109Z,18.45
2022-10-13T09:12:01.250Z,21.05
2022-10-13T09:15:10.545Z,18.52
2022-10-13T09:18:14.699Z,12.05
2022-10-13T09:21:24.865Z,17.40
2022-10-13T09:24:28.316Z,23.05
2022-10-13T09:28:02.344Z,17.00
2022-10-13T09:31:14.504Z,16.65
2022-10-13T09:34:20.522Z,12.40
2022-10-13T09:37:26.320Z,7.35
2022-10-13T09:40:32.332Z,8.77
2022-10-13T09:43:40.126Z,24.30
2022-10-13T09:46:58.174Z,13.20
2022-10-13T09:50:17.700Z,13.18
2022-10-13T09:53:23.820Z,11.88
2022-10-13T09:56:39.760Z,10.85
2022-10-13T10:00:10.981Z,12.45
2022-10-13T10:03:35.273Z,10.70
2022-10-13T10:06:40.994Z,8.85
2022-10-13T10:09:52.087Z,8.93
2022-10-13T10:12:55.249Z,7.05
2022-10-13T10:16:11.912Z,8.30
2022-10-13T10:19:31.191Z,10.20
2022-10-13T10:22:52.327Z,10.95
2022-10-13T10:26:07.360Z,9.32
2022-10-13T10:29:34.701Z,6.50
2022-10-13T10:32:53.260Z,4.75
2022-10-13T10:36:17.542Z,6.63
2022-10-13T10:39:52.815Z,13.80
2022-10-13T10:43:23.074Z,9.82
2022-10-13T10:46:31.360Z,10.95
2022-10-13T10:49:40.041Z,13.75
2022-10-13T10:52:58.572Z,8.68
2022-10-13T10:56:40.355Z,10.65
2022-10-13T11:00:06.456Z,9.02
2022-10-13T11:03:48.245Z,9.35
2022-10-13T11:06:51.310Z,7.88
2022-10-13T11:09:58.008Z,11.60
2022-10-13T11:13:01.093Z,10.50
2022-10-13T11:16:29.388Z,8.32
2022-10-13T11:19:38.000Z,9.95
2022-10-13T11:22:41.231Z,9.40
2022-10-13T11:25:49.479Z,9.00
2022-10-13T11:28:52.701Z,13.68
2022-10-13T11:31:56.149Z,15.52
2022-10-13T11:35:06.234Z,7.78
2022-10-13T11:38:26.922Z,7.18
2022-10-13T11:41:37.845Z,7.28
2022-10-13T11:45:25.649Z,15.32
2022-10-13T11:48:40.677Z,30.50
2022-10-13T11:51:52.999Z,16.25
2022-10-13T11:55:27.380Z,40.35
2022-10-13T11:58:34.951Z,30.08
2022-10-13T12:01:44.631Z,20.33
2022-10-13T12:05:07.992Z,19.10
2022-10-13T12:08:14.844Z,8.55
2022-10-13T12:11:30.396Z,17.42
2022-10-13T12:14:40.581Z,14.48
2022-10-13T12:17:45.293Z,17.63
2022-10-13T12:20:56.650Z,15.93
2022-10-13T12:24:09.087Z,13.23
2022-10-13T12:27:22.123Z,12.55
2022-10-13T12:30:39.032Z,16.08
2022-10-13T12:33:42.198Z,12.93
2022-10-13T12:36:47.320Z,17.20
2022-10-13T12:39:50.718Z,18.17
2022-10-13T12:42:54.705Z,25.95
2022-10-13T12:45:58.037Z,28.42
2022-10-13T12:49:32.205Z,22.50
2022-10-13T12:52:35.507Z,13.43
2022-10-13T12:55:59.570Z,23.10
2022-10-13T12:59:02.743Z,23.27
2022-10-13T13:02:38.862Z,21.23
2022-10-13T13:05:51.935Z,39.38
2022-10-13T13:09:15.655Z,24.83
2022-10-13T13:12:27.209Z,28.88
2022-10-13T13:15:36.765Z,28.33
2022-10-13T13:18:42.872Z,30.17
2022-10-13T13:21:45.920Z,32.47
2022-10-13T13:24:51.732Z,33.20
2022-10-13T13:27:55.915Z,30.88
2022-10-13T13:30:59.434Z,30.20
2022-10-13T13:34:02.405Z,33.78
2022-10-13T13:37:05.499Z,38.85
2022-10-13T13:40:15.355Z,40.35
2022-10-13T13:43:18.562Z,39.17
2022-10-13T13:46:24.372Z,28.63
2022-10-13T13:49:27.344Z,28.60
2022-10-13T13:52:30.348Z,28.05
2022-10-13T13:55:33.677Z,33.22
2022-10-13T13:58:36.936Z,28.85
2022-10-13T14:01:41.422Z,27.50
2022-10-13T14:04:45.051Z,26.67
2022-10-13T14:07:48.189Z,7.00
2022-10-13T14:10:51.295Z,7.82
2022-10-13T14:13:54.282Z,7.22
2022-10-13T14:17:04.338Z,2.58
2022-10-13T14:20:08.315Z,6.33
2022-10-13T14:23:13.889Z,2.63
2022-10-13T14:26:17.113Z,14.93
2022-10-13T14:29:20.467Z,14.20
2022-10-13T14:32:23.537Z,11.57
2022-10-13T14:35:27.010Z,12.27
2022-10-13T14:38:30.323Z,9.02
2022-10-13T14:41:33.445Z,7.78
2022-10-13T14:44:36.594Z,12.45
2022-10-13T14:47:41.471Z,13.15
2022-10-13T14:50:45.143Z,13.88
2022-10-13T14:53:48.238Z,31.05
2022-10-13T14:56:51.856Z,17.90
2022-10-13T14:59:58.007Z,15.88
2022-10-13T15:03:05.476Z,13.80
2022-10-13T15:06:11.163Z,16.05
2022-10-13T15:09:14.228Z,6.38
2022-10-13T15:12:17.513Z,8.25
2022-10-13T15:15:20.947Z,5.35
2022-10-13T15:18:28.372Z,5.55
2022-10-13T15:21:38.658Z,6.00
2022-10-13T15:24:42.126Z,7.97
2022-10-13T15:27:45.212Z,6.00
2022-10-13T15:30:48.184Z,5.68
2022-10-13T15:33:54.456Z,7.18
2022-10-13T15:36:58.956Z,6.43
2022-10-13T15:40:01.935Z,14.88
2022-10-13T15:43:05.680Z,17.65
2022-10-13T15:46:11.937Z,37.92
2022-10-13T15:49:14.880Z,25.30
2022-10-13T15:52:18.435Z,35.03
2022-10-13T15:55:21.709Z,40.38
2022-10-13T15:58:24.696Z,44.25
2022-10-13T16:01:27.634Z,47.95
2022-10-13T16:04:34.869Z,34.53
2022-10-13T16:07:41.840Z,41.22
2022-10-13T16:10:45.090Z,39.30
2022-10-13T16:13:49.950Z,36.42
2022-10-13T16:16:52.918Z,28.65
2022-10-13T16:19:56.150Z,30.73
2022-10-13T16:22:59.212Z,31.88
2022-10-13T16:26:06.585Z,25.20
2022-10-13T16:29:09.589Z,23.92
2022-10-13T16:32:12.634Z,28.48
2022-10-13T16:35:15.775Z,25.00
2022-10-13T16:38:18.777Z,17.98
2022-10-13T16:41:22.060Z,18.52
2022-10-13T16:44:25.388Z,17.65
2022-10-13T16:47:28.477Z,18.05
2022-10-13T16:50:31.406Z,16.05
2022-10-13T16:53:35.103Z,14.48
2022-10-13T16:56:38.159Z,13.05
2022-10-13T16:59:41.672Z,12.93
2022-10-13T17:02:44.659Z,10.82
2022-10-13T17:05:47.661Z,15.45
2022-10-13T17:08:50.703Z,12.30
2022-10-13T17:11:53.786Z,10.68
2022-10-13T17:14:57.015Z,9.13
2022-10-13T17:17:59.991Z,11.48
2022-10-13T17:21:06.186Z,8.60
2022-10-13T17:24:09.504Z,11.77
2022-10-13T17:27:12.508Z,15.30
2022-10-13T17:30:15.705Z,14.70
2022-10-13T17:33:18.703Z,13.82
2022-10-13T17:36:29.984Z,8.05
2022-10-13T17:39:35.061Z,10.48
2022-10-13T17:42:39.096Z,12.35
2022-10-13T17:45:42.130Z,14.97
2022-10-13T17:48:45.892Z,12.85
2022-10-13T17:51:53.005Z,11.30
2022-10-13T17:54:56.519Z,16.27
2022-10-13T17:58:00.682Z,18.67
2022-10-13T18:01:13.281Z,16.08
2022-10-13T18:04:19.572Z,22.38
2022-10-13T18:07:22.953Z,13.23
2022-10-13T18:10:26.082Z,17.42
2022-10-13T18:16:34.047Z,15.15
2022-10-13T18:19:40.215Z,12.13
2022-10-13T18:22:43.559Z,13.13
2022-10-13T18:25:46.564Z,15.32
2022-10-13T18:28:50.473Z,11.98
2022-10-13T18:31:59.279Z,15.32
2022-10-13T18:35:02.306Z,16.95
2022-10-13T18:38:05.569Z,10.13
2022-10-13T18:41:14.830Z,12.18
2022-10-13T18:44:20.527Z,11.52
2022-10-13T18:47:23.773Z,10.87
2022-10-13T18:50:27.854Z,12.57
2022-10-13T18:53:33.074Z,10.77
2022-10-13T18:56:39.527Z,12.13
2022-10-13T18:59:42.865Z,13.27
2022-10-13T19:02:45.965Z,11.73
2022-10-13T19:05:49.343Z,10.63
2022-10-13T19:08:52.382Z,9.98
2022-10-13T19:11:58.286Z,11.32
2022-10-13T19:15:01.236Z,11.05
2022-10-13T19:18:04.786Z,11.25
2022-10-13T19:21:08.300Z,13.80
2022-10-13T19:24:11.391Z,9.35
2022-10-13T19:27:14.431Z,11.52
2022-10-13T19:30:17.521Z,13.60
2022-10-13T19:33:21.733Z,13.25
2022-10-13T19:36:37.988Z,13.25
2022-10-13T19:39:41.113Z,14.77
2022-10-13T19:42:44.129Z,12.13
2022-10-13T19:45:59.786Z,17.05
2022-10-13T19:49:04.041Z,15.60
2022-10-13T19:52:07.453Z,15.63
2022-10-13T19:55:14.183Z,13.90
2022-10-13T19:58:17.775Z,12.63
2022-10-13T20:01:21.779Z,16.55
2022-10-13T20:04:24.971Z,15.67
2022-10-13T20:07:27.986Z,14.55
2022-10-13T20:10:31.053Z,12.82
2022-10-13T20:13:34.012Z,13.65
2022-10-13T20:16:38.432Z,14.80
2022-10-13T20:19:41.667Z,10.00
2022-10-13T20:22:44.682Z,10.23
2022-10-13T20:25:48.286Z,11.02
2022-10-13T20:28:52.560Z,11.80
2022-10-13T20:31:55.614Z,8.57
2022-10-13T20:34:58.670Z,9.52
2022-10-13T20:38:01.729Z,14.38
2022-10-13T20:41:10.710Z,8.82
2022-10-13T20:44:13.703Z,6.95
2022-10-13T20:47:16.676Z,9.02
2022-10-13T20:50:19.737Z,8.43
2022-10-13T20:53:22.710Z,10.20
2022-10-13T20:56:26.978Z,11.77
2022-10-13T20:59:29.966Z,8.25
2022-10-13T21:02:33.517Z,10.95
2022-10-13T21:05:36.504Z,11.80
2022-10-13T21:08:40.245Z,12.43
2022-10-13T21:11:43.332Z,10.73
2022-10-13T21:14:46.480Z,9.07
2022-10-13T21:17:50.106Z,5.88
2022-10-13T21:20:53.162Z,7.75
2022-10-13T21:23:58.832Z,9.88
2022-10-13T21:27:01.801Z,8.65
2022-10-13T21:30:06.129Z,6.28
2022-10-13T21:33:09.136Z,5.85
2022-10-13T21:36:15.664Z,8.27
2022-10-13T21:39:19.257Z,6.18
2022-10-13T21:42:22.724Z,6.13
2022-10-13T21:45:25.732Z,10.45
2022-10-13T21:48:28.721Z,6.30
2022-10-13T21:51:34.823Z,8.52
2022-10-13T21:54:38.203Z,8.15
2022-10-13T21:57:41.175Z,7.78
2022-10-13T22:00:44.372Z,6.38
2022-10-13T22:03:48.808Z,10.73
2022-10-13T22:06:55.130Z,6.50
2022-10-13T22:10:00.945Z,7.32
2022-10-13T22:13:03.952Z,11.18
2022-10-13T22:16:09.204Z,11.20
2022-10-13T22:19:18.223Z,12.32
2022-10-13T22:22:21.235Z,11.70
2022-10-13T22:25:24.378Z,9.82
2022-10-13T22:28:27.727Z,6.95
2022-10-13T22:31:31.290Z,10.15
2022-10-13T22:34:34.652Z,10.18
2022-10-13T22:37:37.679Z,9.60
2022-10-13T22:40:41.446Z,28.38
2022-10-13T22:43:48.486Z,20.25
2022-10-13T22:46:51.491Z,12.85
2022-10-13T22:49:54.542Z,14.00
2022-10-13T22:52:57.792Z,96.82
2022-10-13T22:56:01.608Z,16.85
2022-10-13T22:59:07.221Z,13.75
2022-10-13T23:02:10.344Z,14.30
2022-10-13T23:05:14.738Z,19.67
2022-10-13T23:08:17.947Z,12.13
2022-10-13T23:11:21.259Z,13.10
2022-10-13T23:14:24.257Z,11.32
2022-10-13T23:17:27.211Z,17.58
2022-10-13T23:20:30.954Z,16.20
2022-10-13T23:23:34.662Z,17.17
2022-10-13T23:26:37.673Z,10.43
2022-10-13T23:29:40.698Z,18.50
2022-10-13T23:32:43.781Z,15.60
2022-10-13T23:35:55.252Z,11.75
2022-10-13T23:39:00.687Z,18.90
2022-10-13T23:42:03.861Z,10.68
2022-10-13T23:45:07.248Z,14.43
2022-10-13T23:48:10.254Z,15.23
2022-10-13T23:51:19.050Z,7.82
2022-10-13T23:54:22.079Z,6.97
2022-10-13T23:57:25.180Z,12.10
